Time;durP1;ratioP1;P1;durP2;ratioP2;P2;SDS_P1;SDS_P2;PMS_P1;PMS_P2;Temp;Humidity;BMP_temperature;BMP_pressure;BME280_temperature;BME280_humidity;BME280_pressure;Samples;Min_cycle;Max_cycle;Signal;HPM_P1;HPM_P2
2022/07/16 00:03:15;;;;;;;4.63;2.57;;;14.00;90.20;;;;;;5067415;28;20203;-78
2022/07/16 00:05:40;;;;;;;3.77;2.17;;;13.90;90.40;;;;;;5091844;28;20411;-77
2022/07/16 00:08:06;;;;;;;4.47;2.30;;;13.90;90.40;;;;;;5084092;28;20230;-79
2022/07/16 00:10:32;;;;;;;4.23;2.50;;;13.90;90.30;;;;;;5083865;28;20184;-80
2022/07/16 00:12:58;;;;;;;6.40;2.10;;;13.90;90.40;;;;;;5092067;28;20183;-78
2022/07/16 00:15:23;;;;;;;6.30;2.63;;;13.80;90.40;;;;;;5091860;28;20192;-78
2022/07/16 00:19:15;;;;;;;5.27;3.13;;;13.80;90.50;;;;;;5089656;28;20207;-79
2022/07/16 00:20:34;;;;;;;6.50;1.93;;;13.80;90.50;;;;;;5073387;28;20181;-79
2022/07/16 00:23:00;;;;;;;5.67;2.30;;;13.80;90.30;;;;;;5082557;28;20561;-79
2022/07/16 00:25:25;;;;;;;8.00;2.30;;;13.80;90.30;;;;;;5083118;28;20201;-78
2022/07/16 00:27:51;;;;;;;5.37;2.47;;;13.70;90.40;;;;;;5087426;28;20192;-78
2022/07/16 00:30:17;;;;;;;6.80;2.40;;;13.60;90.80;;;;;;5092373;28;20180;-74
2022/07/16 00:32:42;;;;;;;4.63;1.80;;;13.50;90.70;;;;;;5092774;28;20639;-78
2022/07/16 00:35:08;;;;;;;3.40;2.13;;;13.50;90.80;;;;;;5079045;28;20214;-79
2022/07/16 00:37:34;;;;;;;4.20;2.07;;;13.50;90.90;;;;;;5097435;28;20261;-79
2022/07/16 00:39:59;;;;;;;5.00;2.60;;;13.50;90.80;;;;;;5096803;28;20203;-79
2022/07/16 00:42:25;;;;;;;3.80;2.47;;;13.50;91.00;;;;;;5094272;28;20244;-82
2022/07/16 00:44:50;;;;;;;11.23;2.63;;;13.50;91.20;;;;;;5104817;28;20352;-82
2022/07/16 00:47:16;;;;;;;4.80;2.60;;;13.50;91.30;;;;;;5095923;28;20197;-82
2022/07/16 00:49:42;;;;;;;3.50;2.13;;;13.40;91.30;;;;;;5095205;28;20174;-82
2022/07/16 00:52:07;;;;;;;4.90;2.60;;;13.40;91.70;;;;;;5079598;28;20192;-80
2022/07/16 00:54:34;;;;;;;4.40;1.83;;;13.30;91.70;;;;;;5069760;28;20208;-78
2022/07/16 00:57:00;;;;;;;5.53;2.57;;;13.30;91.70;;;;;;5074647;28;20192;-79
2022/07/16 00:59:25;;;;;;;11.80;2.30;;;13.30;91.60;;;;;;5068837;28;20441;-78
2022/07/16 01:01:52;;;;;;;5.80;2.70;;;13.30;91.80;;;;;;5068880;28;20416;-78
2022/07/16 01:04:18;;;;;;;5.83;3.23;;;13.20;91.70;;;;;;5068794;28;20212;-78
2022/07/16 01:06:47;;;;;;;7.30;2.60;;;13.20;91.90;;;;;;5069638;28;20685;-78
2022/07/16 01:09:14;;;;;;;5.60;2.20;;;13.20;92.00;;;;;;5068636;28;20173;-79
2022/07/16 01:11:40;;;;;;;5.10;2.60;;;13.10;92.00;;;;;;5083353;28;20421;-80
2022/07/16 01:14:07;;;;;;;5.03;2.63;;;13.10;92.00;;;;;;5096189;28;20477;-80
2022/07/16 01:16:33;;;;;;;5.77;3.03;;;13.10;92.10;;;;;;5093985;28;20459;-81
2022/07/16 01:19:00;;;;;;;4.20;2.40;;;13.10;92.10;;;;;;5091723;28;20435;-81
2022/07/16 01:21:25;;;;;;;5.10;2.80;;;13.00;92.20;;;;;;5095018;28;20181;-81
2022/07/16 01:23:51;;;;;;;5.00;2.43;;;13.00;92.00;;;;;;5079511;28;20508;-79
2022/07/16 01:26:17;;;;;;;7.60;3.43;;;13.00;92.40;;;;;;5074105;28;20424;-77
2022/07/16 01:28:42;;;;;;;4.47;2.00;;;13.00;92.20;;;;;;5073000;28;20896;-78
2022/07/16 01:31:08;;;;;;;6.57;3.07;;;13.00;92.40;;;;;;5073239;28;20195;-78
2022/07/16 01:33:37;;;;;;;5.10;2.30;;;13.00;92.20;;;;;;5072340;28;20201;-78
2022/07/16 01:36:09;;;;;;;5.63;2.83;;;13.00;92.40;;;;;;5081498;28;20192;-78
2022/07/16 01:38:38;;;;;;;6.97;3.27;;;13.00;92.60;;;;;;5093775;28;20462;-78
2022/07/16 01:41:04;;;;;;;3.50;2.40;;;12.90;92.60;;;;;;5085723;28;20779;-79
2022/07/16 01:43:30;;;;;;;8.97;3.50;;;12.90;92.80;;;;;;5075218;28;20662;-79
2022/07/16 01:45:57;;;;;;;5.53;3.43;;;12.80;92.70;;;;;;5088264;28;20657;-78
2022/07/16 01:48:23;;;;;;;4.23;2.70;;;12.80;92.70;;;;;;5089119;28;20185;-78
2022/07/16 01:50:49;;;;;;;5.77;2.70;;;12.80;92.90;;;;;;5082957;28;20414;-78
2022/07/16 01:53:15;;;;;;;18.47;2.60;;;12.80;93.00;;;;;;5090873;28;20441;-79
2022/07/16 01:55:41;;;;;;;3.00;2.10;;;12.70;92.80;;;;;;5093125;28;20502;-79
2022/07/16 01:58:09;;;;;;;6.13;2.97;;;12.70;92.80;;;;;;5091622;28;20307;-78
2022/07/16 02:00:37;;;;;;;12.23;3.23;;;12.70;92.70;;;;;;5090564;28;20509;-79
2022/07/16 02:03:04;;;;;;;5.10;1.70;;;12.70;92.80;;;;;;5090022;28;20546;-74
2022/07/16 02:05:29;;;;;;;6.20;3.30;;;12.60;92.80;;;;;;5090211;28;20425;-78
2022/07/16 02:07:55;;;;;;;6.73;2.70;;;12.60;93.00;;;;;;5089330;28;20501;-78
2022/07/16 02:10:21;;;;;;;4.17;2.40;;;12.60;92.80;;;;;;5090171;28;20275;-80
2022/07/16 02:12:47;;;;;;;6.43;3.03;;;12.50;93.10;;;;;;5089519;28;20188;-79
2022/07/16 02:15:12;;;;;;;9.90;3.90;;;12.50;93.10;;;;;;5091401;28;20204;-79
2022/07/16 02:17:39;;;;;;;5.97;2.40;;;12.50;93.10;;;;;;5093007;28;20492;-79
2022/07/16 02:20:06;;;;;;;3.07;1.90;;;12.50;92.80;;;;;;5073362;28;20183;-75
2022/07/16 02:22:33;;;;;;;4.93;2.37;;;12.50;93.00;;;;;;5071131;28;20411;-78
2022/07/16 02:24:59;;;;;;;8.23;2.47;;;12.50;92.80;;;;;;5073001;28;20442;-79
2022/07/16 02:27:25;;;;;;;4.33;2.50;;;12.60;92.70;;;;;;5071990;28;20995;-78
2022/07/16 02:29:50;;;;;;;4.40;2.67;;;12.50;92.80;;;;;;5072188;28;20424;-79
2022/07/16 02:32:16;;;;;;;4.90;2.30;;;12.60;92.70;;;;;;5072755;28;20237;-80
2022/07/16 02:34:42;;;;;;;6.63;2.80;;;12.50;92.60;;;;;;5072862;28;20686;-78
2022/07/16 02:37:08;;;;;;;4.93;2.63;;;12.50;92.70;;;;;;5072308;28;20451;-79
2022/07/16 02:39:33;;;;;;;6.50;3.10;;;12.40;92.80;;;;;;5073113;28;20606;-78
2022/07/16 02:42:00;;;;;;;5.40;3.30;;;12.40;92.90;;;;;;5072762;28;20185;-78
2022/07/16 02:44:26;;;;;;;4.20;2.53;;;12.30;92.80;;;;;;5070708;28;20695;-79
2022/07/16 02:46:51;;;;;;;3.93;2.00;;;12.20;93.40;;;;;;5088517;28;20422;-79
2022/07/16 02:49:17;;;;;;;5.57;2.20;;;12.20;93.10;;;;;;5088278;28;20415;-78
2022/07/16 02:51:43;;;;;;;3.67;2.27;;;12.20;93.10;;;;;;5072185;28;20177;-79
2022/07/16 02:54:08;;;;;;;5.60;3.00;;;12.20;93.00;;;;;;5069364;28;20197;-78
2022/07/16 02:56:34;;;;;;;4.53;2.23;;;12.20;93.10;;;;;;5070748;28;20192;-79
2022/07/16 02:59:00;;;;;;;6.90;3.00;;;12.20;93.30;;;;;;5071180;28;20252;-77
2022/07/16 03:01:25;;;;;;;2.60;1.97;;;12.10;93.00;;;;;;5070642;28;20181;-78
2022/07/16 03:03:51;;;;;;;7.43;2.80;;;12.10;93.00;;;;;;5070577;28;20725;-76
2022/07/16 03:06:17;;;;;;;4.63;2.60;;;12.10;93.00;;;;;;5070742;28;20213;-79
2022/07/16 03:08:44;;;;;;;7.37;2.63;;;12.10;93.20;;;;;;5071069;28;20200;-79
2022/07/16 03:11:09;;;;;;;5.57;2.60;;;12.10;93.30;;;;;;5071711;28;20459;-77
2022/07/16 03:13:35;;;;;;;3.70;1.97;;;12.10;93.00;;;;;;5072280;28;20479;-79
2022/07/16 03:16:01;;;;;;;5.07;2.30;;;12.10;93.20;;;;;;5071157;28;20214;-77
2022/07/16 03:18:27;;;;;;;4.80;2.70;;;12.10;93.20;;;;;;5071594;28;20513;-78
2022/07/16 03:20:52;;;;;;;8.83;3.27;;;12.10;93.00;;;;;;5072199;28;20181;-74
2022/07/16 03:23:18;;;;;;;5.13;2.80;;;12.10;93.10;;;;;;5063141;28;20205;-79
2022/07/16 03:25:44;;;;;;;6.20;2.37;;;12.10;93.20;;;;;;5071457;28;20188;-79
2022/07/16 03:28:09;;;;;;;3.97;2.37;;;12.10;93.20;;;;;;5071871;28;20197;-78
2022/07/16 03:30:36;;;;;;;4.00;1.90;;;12.10;93.20;;;;;;5072026;28;20242;-79
2022/07/16 03:33:02;;;;;;;3.90;1.80;;;12.10;92.90;;;;;;5069499;28;20189;-79
2022/07/16 03:35:28;;;;;;;4.03;1.70;;;12.00;93.10;;;;;;5071197;28;20477;-79
2022/07/16 03:40:38;;;;;;;4.20;2.10;;;12.00;93.50;;;;;;5071405;28;20418;-78
2022/07/16 03:43:04;;;;;;;5.77;2.07;;;12.00;93.50;;;;;;5067148;28;21080;-76
2022/07/16 03:45:30;;;;;;;4.10;1.83;;;12.00;93.50;;;;;;5076752;28;20208;-78
2022/07/16 03:47:55;;;;;;;6.07;2.13;;;11.90;93.30;;;;;;5078021;28;20178;-79
2022/07/16 03:50:21;;;;;;;4.17;2.07;;;11.90;93.50;;;;;;5069238;28;20706;-79
2022/07/16 03:52:47;;;;;;;4.40;2.47;;;11.90;93.40;;;;;;5070800;28;20837;-79
2022/07/16 03:55:13;;;;;;;3.90;2.00;;;11.90;93.50;;;;;;5074109;28;20480;-79
2022/07/16 03:57:40;;;;;;;2.43;1.60;;;11.90;93.60;;;;;;5070749;28;20720;-79
2022/07/16 04:00:06;;;;;;;3.60;2.17;;;11.90;93.60;;;;;;5068744;28;20420;-79
2022/07/16 04:02:32;;;;;;;8.17;2.30;;;11.90;93.60;;;;;;5068744;28;20443;-79
2022/07/16 04:04:58;;;;;;;4.97;2.00;;;11.90;93.60;;;;;;5069158;28;20905;-79
2022/07/16 04:07:23;;;;;;;4.00;2.50;;;11.90;93.70;;;;;;5068646;28;20181;-79
2022/07/16 04:09:49;;;;;;;3.80;2.00;;;12.00;93.60;;;;;;5067242;28;20189;-79
2022/07/16 04:12:15;;;;;;;10.43;2.30;;;12.00;93.60;;;;;;5069792;28;20196;-79
2022/07/16 04:14:40;;;;;;;4.40;2.80;;;12.00;93.60;;;;;;5070536;28;20208;-80
2022/07/16 04:17:06;;;;;;;7.57;2.30;;;12.00;93.60;;;;;;5070956;28;20201;-79
2022/07/16 04:19:32;;;;;;;5.33;2.73;;;12.00;93.60;;;;;;5070489;28;20179;-74
2022/07/16 04:21:57;;;;;;;2.67;2.00;;;12.00;93.20;;;;;;5058297;28;20293;-79
2022/07/16 04:24:23;;;;;;;2.80;1.83;;;11.90;93.10;;;;;;5063243;28;20204;-80
2022/07/16 04:26:48;;;;;;;5.97;2.23;;;11.80;93.20;;;;;;5070650;28;20188;-79
2022/07/16 04:29:14;;;;;;;5.03;2.60;;;11.80;93.60;;;;;;5070069;28;20173;-79
2022/07/16 04:31:40;;;;;;;4.77;1.80;;;11.80;93.70;;;;;;5069915;28;20669;-77
2022/07/16 04:34:06;;;;;;;5.23;2.30;;;11.90;94.10;;;;;;5070013;28;20423;-77
2022/07/16 04:36:31;;;;;;;4.73;1.80;;;12.00;93.60;;;;;;5068754;28;20208;-74
2022/07/16 04:38:57;;;;;;;7.80;2.33;;;12.10;93.10;;;;;;5069355;28;20236;-79
2022/07/16 04:41:23;;;;;;;5.07;2.07;;;12.10;93.30;;;;;;5069627;28;20717;-78
2022/07/16 04:43:48;;;;;;;4.17;1.97;;;12.20;93.70;;;;;;5069502;28;20327;-77
2022/07/16 04:46:14;;;;;;;13.90;2.20;;;12.20;93.40;;;;;;5074485;28;20180;-78
2022/07/16 04:48:40;;;;;;;6.00;2.73;;;12.30;93.60;;;;;;5072370;28;20188;-78
2022/07/16 04:51:06;;;;;;;5.10;1.50;;;12.30;93.90;;;;;;5067989;28;20193;-79
2022/07/16 04:53:31;;;;;;;4.87;1.90;;;12.40;93.80;;;;;;5068065;28;20216;-79
2022/07/16 04:55:57;;;;;;;3.47;2.10;;;12.40;93.90;;;;;;5072995;28;20256;-79
2022/07/16 04:58:23;;;;;;;5.27;2.90;;;12.40;94.10;;;;;;5067873;28;20433;-79
2022/07/16 05:00:48;;;;;;;3.30;1.73;;;12.50;93.80;;;;;;5067731;28;20579;-80
2022/07/16 05:03:14;;;;;;;5.67;2.00;;;12.60;93.60;;;;;;5068044;28;20238;-78
2022/07/16 05:05:39;;;;;;;4.43;2.33;;;12.70;93.70;;;;;;5068110;28;20230;-78
2022/07/16 05:08:08;;;;;;;6.83;1.87;;;12.80;94.00;;;;;;5055158;28;20568;-79
2022/07/16 05:10:34;;;;;;;3.13;2.00;;;12.80;94.50;;;;;;5069539;28;20189;-79
2022/07/16 05:12:59;;;;;;;5.50;2.83;;;12.90;94.50;;;;;;5069160;28;20414;-79
2022/07/16 05:15:26;;;;;;;2.70;1.63;;;13.00;94.20;;;;;;5069547;28;20183;-79
2022/07/16 05:17:52;;;;;;;4.23;1.77;;;13.10;93.60;;;;;;5067796;28;20197;-80
2022/07/16 05:20:17;;;;;;;3.60;2.23;;;13.10;92.60;;;;;;5069427;28;20541;-79
2022/07/16 05:22:43;;;;;;;2.33;1.23;;;13.20;92.70;;;;;;5068830;28;20181;-79
2022/07/16 05:25:10;;;;;;;3.53;1.80;;;13.40;93.70;;;;;;5069638;28;20196;-78
2022/07/16 05:27:36;;;;;;;3.20;1.80;;;13.50;93.10;;;;;;5079593;28;20267;-80
2022/07/16 05:30:03;;;;;;;4.73;1.83;;;13.50;92.70;;;;;;5070604;28;20430;-80
2022/07/16 05:32:28;;;;;;;4.10;1.67;;;13.60;92.60;;;;;;5069113;28;20468;-78
2022/07/16 05:34:54;;;;;;;4.20;1.77;;;13.70;91.60;;;;;;5069308;28;20447;-79
2022/07/16 05:37:20;;;;;;;3.53;1.70;;;13.80;91.30;;;;;;5069390;28;20238;-80
2022/07/16 05:39:46;;;;;;;4.17;2.00;;;13.80;91.70;;;;;;5069561;28;20181;-78
2022/07/16 05:42:12;;;;;;;3.90;1.80;;;14.00;91.50;;;;;;5069355;28;20415;-79
2022/07/16 05:44:38;;;;;;;4.67;2.00;;;14.00;91.10;;;;;;5067825;28;20602;-77
2022/07/16 05:47:04;;;;;;;3.70;1.53;;;14.10;91.10;;;;;;5074671;28;20187;-79
2022/07/16 05:49:29;;;;;;;3.00;1.30;;;14.10;89.80;;;;;;5069955;28;20420;-79
2022/07/16 05:51:55;;;;;;;6.03;1.97;;;14.20;86.60;;;;;;5071143;28;20484;-79
2022/07/16 05:54:20;;;;;;;4.27;1.60;;;14.30;86.70;;;;;;5072791;28;20227;-75
2022/07/16 05:56:46;;;;;;;4.60;1.53;;;14.50;87.70;;;;;;5079133;28;20184;-78
2022/07/16 05:59:12;;;;;;;2.70;1.27;;;14.60;88.30;;;;;;5081911;28;20193;-79
2022/07/16 06:01:37;;;;;;;3.37;2.00;;;14.60;89.40;;;;;;5072148;28;20692;-79
2022/07/16 06:04:03;;;;;;;4.70;1.80;;;14.70;87.50;;;;;;5071354;28;20229;-78
2022/07/16 06:06:29;;;;;;;7.77;1.40;;;14.80;84.80;;;;;;5071853;28;20386;-79
2022/07/16 06:08:55;;;;;;;2.73;1.33;;;14.90;86.10;;;;;;5071604;28;20169;-79
2022/07/16 06:11:20;;;;;;;4.30;1.20;;;15.00;82.30;;;;;;5069881;28;20411;-78
2022/07/16 06:13:46;;;;;;;2.10;0.90;;;15.10;81.50;;;;;;5071412;28;20197;-79
2022/07/16 06:16:12;;;;;;;3.57;1.60;;;15.20;81.70;;;;;;5072107;28;20226;-79
2022/07/16 06:18:37;;;;;;;3.03;1.50;;;15.20;80.50;;;;;;5072565;28;20212;-79
2022/07/16 06:21:03;;;;;;;2.57;1.30;;;15.30;81.80;;;;;;5072306;28;20207;-74
2022/07/16 06:23:30;;;;;;;2.20;1.30;;;15.40;80.30;;;;;;5073064;28;20189;-78
2022/07/16 06:25:56;;;;;;;3.53;1.60;;;15.50;82.40;;;;;;5072517;28;20680;-79
2022/07/16 06:28:21;;;;;;;2.70;1.27;;;15.60;82.70;;;;;;5073159;28;20411;-78
2022/07/16 06:30:47;;;;;;;2.63;1.40;;;15.70;82.80;;;;;;5072343;28;20185;-79
2022/07/16 06:33:12;;;;;;;2.43;1.07;;;15.80;81.80;;;;;;5072103;28;20227;-80
2022/07/16 06:35:38;;;;;;;2.10;1.13;;;15.90;80.10;;;;;;5072237;28;20184;-79
2022/07/16 06:38:04;;;;;;;4.17;2.40;;;16.00;79.90;;;;;;5072474;28;20207;-80
2022/07/16 06:40:30;;;;;;;8.17;1.40;;;16.10;81.30;;;;;;5074026;28;20565;-78
2022/07/16 06:42:56;;;;;;;3.53;1.10;;;16.20;81.50;;;;;;5073775;28;20268;-79
2022/07/16 06:45:21;;;;;;;4.23;1.60;;;16.30;81.20;;;;;;5073833;28;20459;-78
2022/07/16 06:47:47;;;;;;;7.57;2.53;;;16.40;80.70;;;;;;5075972;28;20199;-80
2022/07/16 06:50:14;;;;;;;3.77;1.80;;;16.50;81.80;;;;;;5071460;28;20188;-79
2022/07/16 06:52:40;;;;;;;4.23;1.50;;;16.60;81.00;;;;;;5071376;28;20585;-79
2022/07/16 06:55:06;;;;;;;4.30;1.80;;;16.80;80.10;;;;;;5075596;28;20431;-79
2022/07/16 06:57:32;;;;;;;4.13;1.83;;;16.90;79.00;;;;;;5092043;28;20469;-78
2022/07/16 06:59:58;;;;;;;3.90;1.60;;;17.00;79.00;;;;;;5083398;28;20420;-78
2022/07/16 07:02:24;;;;;;;4.47;2.23;;;17.20;77.50;;;;;;5071051;28;20430;-79
2022/07/16 07:04:49;;;;;;;3.83;1.90;;;17.30;76.70;;;;;;5071356;28;20439;-79
2022/07/16 07:07:16;;;;;;;3.27;1.40;;;17.50;77.70;;;;;;5071490;28;20183;-78
2022/07/16 07:09:42;;;;;;;6.13;2.00;;;17.60;76.90;;;;;;5070544;28;20188;-78
2022/07/16 07:12:08;;;;;;;3.50;1.30;;;17.80;75.00;;;;;;5070845;28;20506;-79
2022/07/16 07:14:33;;;;;;;4.03;1.90;;;18.10;73.30;;;;;;5071157;28;20205;-80
2022/07/16 07:16:59;;;;;;;2.60;1.07;;;18.30;70.90;;;;;;5079924;28;20185;-78
2022/07/16 07:19:25;;;;;;;2.43;1.03;;;18.60;69.60;;;;;;5072345;28;20177;-79
2022/07/16 07:21:50;;;;;;;2.90;1.40;;;18.80;71.10;;;;;;5071135;28;20573;-80
2022/07/16 07:24:16;;;;;;;5.77;1.80;;;19.00;68.20;;;;;;5070689;28;20204;-79
2022/07/16 07:26:41;;;;;;;3.07;1.10;;;19.20;67.70;;;;;;5069830;28;20185;-79
2022/07/16 07:29:07;;;;;;;2.77;1.30;;;19.60;67.30;;;;;;5074520;28;20180;-79
2022/07/16 07:31:33;;;;;;;3.60;1.30;;;20.10;64.70;;;;;;5084203;28;20302;-80
2022/07/16 07:33:58;;;;;;;6.30;1.33;;;20.60;63.80;;;;;;5070650;28;20197;-79
2022/07/16 07:36:24;;;;;;;2.00;0.80;;;21.10;63.90;;;;;;5071433;28;20181;-79
2022/07/16 07:38:50;;;;;;;2.80;1.10;;;21.50;61.90;;;;;;5071046;28;20242;-76
2022/07/16 07:41:15;;;;;;;1.80;0.97;;;21.80;62.80;;;;;;5070541;28;20212;-80
2022/07/16 07:43:41;;;;;;;4.40;1.47;;;22.30;59.00;;;;;;5079151;28;20283;-79
2022/07/16 07:46:07;;;;;;;5.83;1.87;;;23.00;59.70;;;;;;5071179;28;20175;-79
2022/07/16 07:48:33;;;;;;;7.07;1.80;;;24.00;56.30;;;;;;5073445;28;20180;-79
2022/07/16 07:50:58;;;;;;;3.40;1.27;;;24.90;54.80;;;;;;5075684;28;20211;-79
2022/07/16 07:53:24;;;;;;;2.33;1.10;;;26.00;53.10;;;;;;5073459;28;20191;-79
2022/07/16 07:55:50;;;;;;;2.25;1.17;;;26.40;52.00;;;;;;5077499;28;20661;-80
2022/07/16 07:58:15;;;;;;;2.20;0.98;;;26.20;53.30;;;;;;5070224;28;20208;-79
2022/07/16 08:00:42;;;;;;;2.33;1.10;;;27.90;49.20;;;;;;5074029;28;20675;-80
2022/07/16 08:03:08;;;;;;;2.63;1.20;;;27.70;49.00;;;;;;5068581;28;20821;-80
2022/07/16 08:05:34;;;;;;;7.05;1.48;;;27.80;48.80;;;;;;5069552;28;20533;-80
2022/07/16 08:07:59;;;;;;;4.45;1.35;;;27.90;48.80;;;;;;5085039;28;20558;-79
2022/07/16 08:10:25;;;;;;;2.75;1.20;;;27.90;48.90;;;;;;5082206;28;20191;-80
2022/07/16 08:12:50;;;;;;;3.85;1.48;;;28.20;47.20;;;;;;5082852;28;20184;-80
2022/07/16 08:15:16;;;;;;;4.28;1.35;;;28.30;46.20;;;;;;5070525;28;20179;-80
2022/07/16 08:17:42;;;;;;;9.05;1.50;;;27.40;47.90;;;;;;5070601;28;20635;-78
2022/07/16 08:20:09;;;;;;;2.90;1.30;;;27.40;47.50;;;;;;5070607;28;20198;-79
2022/07/16 08:22:36;;;;;;;2.60;1.10;;;27.40;47.80;;;;;;5070080;28;20216;-79
2022/07/16 08:27:46;;;;;;;7.00;1.30;;;26.90;50.00;;;;;;5071463;28;20538;-77
2022/07/16 08:30:12;;;;;;;6.22;1.30;;;27.40;48.10;;;;;;5081955;28;20180;-79
2022/07/16 08:32:38;;;;;;;2.55;1.40;;;27.20;49.00;;;;;;5079601;28;20190;-80
2022/07/16 08:35:04;;;;;;;2.75;1.20;;;27.10;49.60;;;;;;5076324;28;20207;-80
2022/07/16 08:37:35;;;;;;;4.35;1.20;;;27.00;48.20;;;;;;5069038;28;20209;-80
2022/07/16 08:40:03;;;;;;;3.53;1.60;;;27.30;48.80;;;;;;5071260;28;20172;-80
2022/07/16 08:42:31;;;;;;;4.13;1.70;;;27.70;48.20;;;;;;5069286;28;20574;-79
2022/07/16 08:44:58;;;;;;;7.85;2.20;;;27.80;47.50;;;;;;5070829;28;20193;-79
2022/07/16 08:47:24;;;;;;;6.75;1.90;;;28.10;46.60;;;;;;5066893;28;20567;-79
2022/07/16 08:49:50;;;;;;;3.92;1.45;;;28.20;46.60;;;;;;5076124;28;20180;-80
2022/07/16 08:52:19;;;;;;;3.58;1.60;;;28.10;47.70;;;;;;5072288;28;20172;-75
2022/07/16 08:54:46;;;;;;;3.83;1.30;;;27.70;48.10;;;;;;5069552;28;20643;-79
2022/07/16 08:57:12;;;;;;;2.70;1.13;;;28.20;47.20;;;;;;5074350;28;20964;-80
2022/07/16 08:59:38;;;;;;;4.68;1.42;;;27.70;48.40;;;;;;5068588;28;20218;-80
2022/07/16 09:02:03;;;;;;;4.40;2.03;;;27.80;48.20;;;;;;5068274;28;20183;-80
2022/07/16 09:04:29;;;;;;;4.53;1.77;;;27.50;48.20;;;;;;5070336;28;20192;-81
2022/07/16 09:06:55;;;;;;;3.95;1.58;;;27.40;48.10;;;;;;5071045;28;20179;-80
2022/07/16 09:09:20;;;;;;;4.35;1.90;;;27.60;48.90;;;;;;5070055;28;20177;-75
2022/07/16 09:11:46;;;;;;;2.85;1.00;;;28.40;46.50;;;;;;5076611;28;20598;-80
2022/07/16 09:14:18;;;;;;;4.00;1.65;;;28.20;47.70;;;;;;5071996;28;20214;-79
2022/07/16 09:16:50;;;;;;;1.88;1.02;;;28.10;47.40;;;;;;5072798;28;20218;-79
2022/07/16 09:19:18;;;;;;;4.57;1.55;;;28.40;46.60;;;;;;5066145;28;20216;-80
2022/07/16 09:22:07;;;;;;;20.52;1.85;;;28.00;47.50;;;;;;5070091;28;20711;-79
2022/07/16 09:24:41;;;;;;;4.22;1.40;;;27.60;48.60;;;;;;5076070;28;20230;-79
2022/07/16 09:27:14;;;;;;;3.95;1.95;;;27.20;49.60;;;;;;5079526;28;20258;-80
2022/07/16 09:29:58;;;;;;;3.33;1.70;;;27.60;48.80;;;;;;5079861;28;20196;-79
2022/07/16 09:32:37;;;;;;;7.50;1.50;;;27.50;48.80;;;;;;5066361;28;20168;-80
2022/07/16 09:35:11;;;;;;;3.75;1.70;;;27.90;48.00;;;;;;5079469;28;20188;-81
2022/07/16 09:38:01;;;;;;;6.20;1.38;;;28.20;46.60;;;;;;5077744;28;20191;-80
2022/07/16 09:40:41;;;;;;;4.57;1.60;;;27.50;47.30;;;;;;5078163;28;20172;-80
2022/07/16 09:43:13;;;;;;;5.50;1.83;;;27.20;49.20;;;;;;5076392;28;20176;-81
2022/07/16 09:45:40;;;;;;;2.90;1.40;;;27.20;48.90;;;;;;5077413;28;20181;-81
2022/07/16 09:48:28;;;;;;;2.92;1.48;;;27.10;49.10;;;;;;5074636;28;20193;-79
2022/07/16 09:50:55;;;;;;;9.95;1.80;;;26.60;50.10;;;;;;5087771;28;20543;-78
2022/07/16 09:53:24;;;;;;;2.80;1.23;;;26.50;51.80;;;;;;5085108;28;20239;-79
2022/07/16 09:56:04;;;;;;;6.65;1.80;;;26.40;51.00;;;;;;5074023;28;20210;-79
2022/07/16 09:58:30;;;;;;;2.90;1.10;;;26.50;50.20;;;;;;5077778;28;20257;-80
2022/07/16 10:00:57;;;;;;;2.25;1.10;;;26.60;49.30;;;;;;5075520;28;20207;-79
2022/07/16 10:03:23;;;;;;;3.53;1.20;;;27.00;48.40;;;;;;5075141;28;20227;-80
2022/07/16 10:05:49;;;;;;;2.20;1.30;;;26.60;49.60;;;;;;5075662;28;20195;-79
2022/07/16 10:08:16;;;;;;;3.88;1.38;;;27.00;48.40;;;;;;5075128;28;20653;-80
2022/07/16 10:10:42;;;;;;;3.83;1.48;;;27.00;47.90;;;;;;5074222;28;20600;-79
2022/07/16 10:13:10;;;;;;;26.90;1.67;;;26.80;49.40;;;;;;5075055;28;20180;-81
2022/07/16 10:15:36;;;;;;;4.25;1.10;;;26.80;48.60;;;;;;5076783;28;20251;-80
2022/07/16 10:18:03;;;;;;;3.65;1.73;;;27.10;48.10;;;;;;5076943;28;20741;-78
2022/07/16 10:20:34;;;;;;;3.70;1.02;;;26.80;47.20;;;;;;5076891;28;20192;-80
2022/07/16 10:23:05;;;;;;;2.47;1.33;;;26.40;49.60;;;;;;5070423;28;20172;-78
2022/07/16 10:25:32;;;;;;;3.17;1.50;;;25.80;49.50;;;;;;5077211;28;20249;-79
2022/07/16 10:27:58;;;;;;;3.95;1.60;;;25.90;49.40;;;;;;5076511;28;20184;-79
2022/07/16 10:30:29;;;;;;;2.00;0.80;;;25.80;49.50;;;;;;5075997;28;20184;-78
2022/07/16 10:35:44;;;;;;;12.23;2.40;;;25.60;50.90;;;;;;5076319;28;20421;-79
2022/07/16 10:38:09;;;;;;;2.73;1.23;;;25.60;49.00;;;;;;5080431;28;20200;-79
2022/07/16 10:40:37;;;;;;;2.27;1.00;;;25.30;49.70;;;;;;5072400;28;20422;-79
2022/07/16 10:43:15;;;;;;;3.37;1.23;;;25.40;50.00;;;;;;5072671;28;20168;-78
2022/07/16 10:45:56;;;;;;;3.97;1.30;;;25.50;48.40;;;;;;5071188;28;20754;-79
2022/07/16 10:48:27;;;;;;;3.60;1.37;;;25.30;50.60;;;;;;5072795;28;20457;-78
2022/07/16 10:51:23;;;;;;;3.30;1.20;;;25.20;51.30;;;;;;5071415;28;20459;-77
2022/07/16 10:53:58;;;;;;;4.77;1.33;;;25.30;50.60;;;;;;5061572;28;20533;-75
2022/07/16 10:56:35;;;;;;;3.53;0.90;;;25.40;49.40;;;;;;5076266;28;20410;-80
2022/07/16 10:59:02;;;;;;;3.20;1.20;;;25.50;48.60;;;;;;5084104;28;20478;-77
2022/07/16 11:01:29;;;;;;;2.07;1.00;;;25.30;48.80;;;;;;5070289;28;20536;-80
2022/07/16 11:03:55;;;;;;;3.50;1.27;;;25.30;49.50;;;;;;5071768;28;20439;-79
2022/07/16 11:06:21;;;;;;;2.17;0.90;;;25.30;49.80;;;;;;5071378;28;20930;-79
2022/07/16 11:08:53;;;;;;;3.20;1.00;;;25.40;49.00;;;;;;5071328;28;20560;-78
2022/07/16 11:11:19;;;;;;;2.43;1.30;;;25.30;48.90;;;;;;5071222;28;21004;-80
2022/07/16 11:13:52;;;;;;;3.00;1.20;;;25.00;49.20;;;;;;5073457;28;20467;-79
2022/07/16 11:16:17;;;;;;;2.60;1.33;;;25.20;48.20;;;;;;5071132;28;20935;-75
2022/07/16 11:18:43;;;;;;;11.60;1.23;;;25.30;48.50;;;;;;5071668;28;20454;-79
2022/07/16 11:21:09;;;;;;;3.73;1.10;;;25.30;47.90;;;;;;5072089;28;20635;-79
2022/07/16 11:23:52;;;;;;;2.10;0.77;;;25.00;48.70;;;;;;5072537;28;20227;-79
2022/07/16 11:26:19;;;;;;;2.37;1.10;;;25.10;48.80;;;;;;5071224;28;20422;-80
2022/07/16 11:29:03;;;;;;;2.80;0.73;;;25.30;48.80;;;;;;5071091;28;20417;-80
2022/07/16 11:31:34;;;;;;;3.07;1.40;;;25.30;47.40;;;;;;5070822;28;20525;-79
2022/07/16 11:34:04;;;;;;;2.00;0.83;;;25.20;48.10;;;;;;5073497;28;20446;-79
2022/07/16 11:36:32;;;;;;;3.50;1.17;;;25.10;49.00;;;;;;5074110;28;20454;-78
2022/07/16 11:39:02;;;;;;;2.27;0.90;;;25.10;49.10;;;;;;5075916;28;20454;-80
2022/07/16 11:41:29;;;;;;;2.93;1.23;;;25.30;49.10;;;;;;5072878;28;20904;-78
2022/07/16 11:43:55;;;;;;;3.03;1.00;;;25.20;49.10;;;;;;5072468;28;20450;-79
2022/07/16 11:46:27;;;;;;;3.87;1.03;;;25.20;48.20;;;;;;5072503;28;20938;-79
2022/07/16 11:48:53;;;;;;;2.30;0.97;;;25.30;48.60;;;;;;5073434;28;20863;-81
2022/07/16 11:51:21;;;;;;;2.13;0.80;;;25.20;48.70;;;;;;5073990;28;20433;-80
2022/07/16 11:53:50;;;;;;;2.40;0.90;;;25.30;49.30;;;;;;5075024;28;20445;-79
2022/07/16 11:56:36;;;;;;;4.27;1.27;;;25.40;49.10;;;;;;5084895;28;20410;-79
2022/07/16 11:59:24;;;;;;;3.07;1.20;;;25.40;48.80;;;;;;5079782;28;20467;-78
2022/07/16 12:02:07;;;;;;;3.10;1.17;;;25.50;48.50;;;;;;5069090;28;20434;-80
2022/07/16 12:04:40;;;;;;;3.60;1.23;;;25.70;47.60;;;;;;5076307;28;20501;-80
2022/07/16 12:07:11;;;;;;;2.00;1.00;;;25.50;48.20;;;;;;5073589;28;20415;-79
2022/07/16 12:09:42;;;;;;;2.43;1.27;;;25.20;48.50;;;;;;5071115;28;20770;-79
2022/07/16 12:12:22;;;;;;;2.03;0.77;;;25.30;48.90;;;;;;5071708;28;20915;-80
2022/07/16 12:14:48;;;;;;;1.90;0.90;;;25.50;48.10;;;;;;5070752;28;20449;-79
2022/07/16 12:17:32;;;;;;;2.03;0.90;;;25.30;49.10;;;;;;5073812;28;20490;-79
2022/07/16 12:20:08;;;;;;;2.40;0.97;;;25.50;49.90;;;;;;5072835;28;20263;-79
2022/07/16 12:22:57;;;;;;;8.80;1.40;;;25.60;48.60;;;;;;5066661;28;20416;-80
2022/07/16 12:25:30;;;;;;;7.43;1.07;;;25.60;49.50;;;;;;5059431;28;20998;-80
2022/07/16 12:27:59;;;;;;;2.37;0.97;;;25.80;48.50;;;;;;5072957;28;20438;-79
2022/07/16 12:30:41;;;;;;;4.50;1.00;;;25.80;48.10;;;;;;5072461;28;20418;-79
2022/07/16 12:33:15;;;;;;;3.70;1.00;;;25.80;50.20;;;;;;5084869;28;20417;-79
2022/07/16 12:35:47;;;;;;;1.87;0.80;;;26.10;47.70;;;;;;5072482;28;20410;-79
2022/07/16 12:38:38;;;;;;;2.17;0.80;;;26.20;48.60;;;;;;5072771;28;20462;-80
2022/07/16 12:41:36;;;;;;;2.30;0.83;;;26.30;48.20;;;;;;5059441;28;20442;-79
2022/07/16 12:44:10;;;;;;;3.00;1.23;;;26.20;48.10;;;;;;5058265;28;20961;-79
2022/07/16 12:46:51;;;;;;;2.00;0.80;;;26.10;47.90;;;;;;5072763;28;20468;-80
2022/07/16 12:49:22;;;;;;;6.43;1.17;;;25.90;48.90;;;;;;5071449;28;20832;-79
2022/07/16 12:51:52;;;;;;;2.20;1.00;;;25.90;48.30;;;;;;5064221;28;20787;-78
2022/07/16 12:54:19;;;;;;;1.60;0.70;;;25.80;47.40;;;;;;5077502;28;20438;-76
2022/07/16 12:59:32;;;;;;;2.13;0.83;;;26.30;46.90;;;;;;5069925;28;20469;-78
2022/07/16 13:01:58;;;;;;;1.90;0.90;;;26.10;47.50;;;;;;5070678;28;20512;-80